sensor_id;sensor_type;location;lat;lon;timestamp;P1;durP1;ratioP1;P2;durP2;ratioP2
27225;SDS011;14732;51.074;3.788;2023-04-25T00:01:33;20.20;;;4.28;;
27225;SDS011;14732;51.074;3.788;2023-04-25T00:04:01;24.50;;;4.57;;
27225;SDS011;14732;51.074;3.788;2023-04-25T00:06:27;15.02;;;3.97;;
27225;SDS011;14732;51.074;3.788;2023-04-25T00:08:55;16.20;;;3.67;;
27225;SDS011;14732;51.074;3.788;2023-04-25T00:11:21;17.38;;;4.20;;
27225;SDS011;14732;51.074;3.788;2023-04-25T00:13:47;19.40;;;3.63;;
27225;SDS011;14732;51.074;3.788;2023-04-25T00:16:14;20.65;;;4.13;;
27225;SDS011;14732;51.074;3.788;2023-04-25T00:18:43;16.92;;;4.00;;
27225;SDS011;14732;51.074;3.788;2023-04-25T00:21:11;14.48;;;4.55;;
27225;SDS011;14732;51.074;3.788;2023-04-25T00:23:37;25.35;;;5.68;;
27225;SDS011;14732;51.074;3.788;2023-04-25T00:26:03;20.60;;;5.25;;
27225;SDS011;14732;51.074;3.788;2023-04-25T00:28:29;24.42;;;5.68;;
27225;SDS011;14732;51.074;3.788;2023-04-25T00:30:55;21.05;;;4.80;;
27225;SDS011;14732;51.074;3.788;2023-04-25T00:33:21;17.85;;;4.97;;
27225;SDS011;14732;51.074;3.788;2023-04-25T00:35:46;15.07;;;3.50;;
27225;SDS011;14732;51.074;3.788;2023-04-25T00:38:12;23.70;;;3.83;;
27225;SDS011;14732;51.074;3.788;2023-04-25T00:40:38;15.55;;;3.15;;
27225;SDS011;14732;51.074;3.788;2023-04-25T00:43:03;14.23;;;3.63;;
27225;SDS011;14732;51.074;3.788;2023-04-25T00:45:29;15.25;;;3.30;;
27225;SDS011;14732;51.074;3.788;2023-04-25T00:47:55;18.70;;;3.58;;
27225;SDS011;14732;51.074;3.788;2023-04-25T00:50:21;14.98;;;3.13;;
27225;SDS011;14732;51.074;3.788;2023-04-25T00:52:47;14.10;;;3.35;;
27225;SDS011;14732;51.074;3.788;2023-04-25T00:55:13;17.20;;;3.03;;
27225;SDS011;14732;51.074;3.788;2023-04-25T00:57:40;12.80;;;2.90;;
27225;SDS011;14732;51.074;3.788;2023-04-25T01:00:07;22.65;;;3.42;;
27225;SDS011;14732;51.074;3.788;2023-04-25T01:02:34;16.33;;;3.00;;
27225;SDS011;14732;51.074;3.788;2023-04-25T01:05:01;12.88;;;2.90;;
27225;SDS011;14732;51.074;3.788;2023-04-25T01:07:28;19.92;;;3.50;;
27225;SDS011;14732;51.074;3.788;2023-04-25T01:09:54;11.82;;;3.05;;
27225;SDS011;14732;51.074;3.788;2023-04-25T01:12:19;14.20;;;3.20;;
27225;SDS011;14732;51.074;3.788;2023-04-25T01:14:46;15.30;;;3.17;;
27225;SDS011;14732;51.074;3.788;2023-04-25T01:17:12;14.23;;;2.85;;
27225;SDS011;14732;51.074;3.788;2023-04-25T01:19:38;11.00;;;2.97;;
27225;SDS011;14732;51.074;3.788;2023-04-25T01:22:04;18.88;;;3.30;;
27225;SDS011;14732;51.074;3.788;2023-04-25T01:24:33;10.60;;;3.22;;
27225;SDS011;14732;51.074;3.788;2023-04-25T01:26:59;14.80;;;3.10;;
27225;SDS011;14732;51.074;3.788;2023-04-25T01:29:26;12.25;;;2.92;;
27225;SDS011;14732;51.074;3.788;2023-04-25T01:31:53;17.83;;;3.38;;
27225;SDS011;14732;51.074;3.788;2023-04-25T01:34:19;19.00;;;3.10;;
27225;SDS011;14732;51.074;3.788;2023-04-25T01:36:46;16.83;;;3.53;;
27225;SDS011;14732;51.074;3.788;2023-04-25T01:39:15;15.30;;;3.55;;
27225;SDS011;14732;51.074;3.788;2023-04-25T01:41:41;20.55;;;4.13;;
27225;SDS011;14732;51.074;3.788;2023-04-25T01:44:07;9.10;;;3.03;;
27225;SDS011;14732;51.074;3.788;2023-04-25T01:46:33;15.10;;;3.42;;
27225;SDS011;14732;51.074;3.788;2023-04-25T01:48:59;21.58;;;3.75;;
27225;SDS011;14732;51.074;3.788;2023-04-25T01:51:25;15.85;;;3.58;;
27225;SDS011;14732;51.074;3.788;2023-04-25T01:53:51;16.10;;;3.28;;
27225;SDS011;14732;51.074;3.788;2023-04-25T01:56:17;18.90;;;3.72;;
27225;SDS011;14732;51.074;3.788;2023-04-25T01:58:45;18.83;;;3.63;;
27225;SDS011;14732;51.074;3.788;2023-04-25T02:01:11;21.88;;;4.18;;
27225;SDS011;14732;51.074;3.788;2023-04-25T02:03:36;15.73;;;3.40;;
27225;SDS011;14732;51.074;3.788;2023-04-25T02:06:02;16.70;;;3.65;;
27225;SDS011;14732;51.074;3.788;2023-04-25T02:08:28;16.50;;;4.75;;
27225;SDS011;14732;51.074;3.788;2023-04-25T02:10:55;40.05;;;14.10;;
27225;SDS011;14732;51.074;3.788;2023-04-25T02:13:20;33.40;;;11.95;;
27225;SDS011;14732;51.074;3.788;2023-04-25T02:15:46;27.83;;;8.05;;
27225;SDS011;14732;51.074;3.788;2023-04-25T02:18:12;18.70;;;6.75;;
27225;SDS011;14732;51.074;3.788;2023-04-25T02:20:38;23.20;;;7.47;;
27225;SDS011;14732;51.074;3.788;2023-04-25T02:23:03;22.17;;;7.78;;
27225;SDS011;14732;51.074;3.788;2023-04-25T02:25:29;29.83;;;8.35;;
27225;SDS011;14732;51.074;3.788;2023-04-25T02:27:55;29.30;;;9.23;;
27225;SDS011;14732;51.074;3.788;2023-04-25T02:30:20;30.65;;;11.02;;
27225;SDS011;14732;51.074;3.788;2023-04-25T02:32:46;28.60;;;9.65;;
27225;SDS011;14732;51.074;3.788;2023-04-25T02:35:12;25.92;;;10.10;;
27225;SDS011;14732;51.074;3.788;2023-04-25T02:37:38;32.20;;;10.65;;
27225;SDS011;14732;51.074;3.788;2023-04-25T02:40:05;38.42;;;12.45;;
27225;SDS011;14732;51.074;3.788;2023-04-25T02:42:32;32.25;;;11.68;;
27225;SDS011;14732;51.074;3.788;2023-04-25T02:44:57;40.60;;;13.45;;
27225;SDS011;14732;51.074;3.788;2023-04-25T02:47:23;40.75;;;12.63;;
27225;SDS011;14732;51.074;3.788;2023-04-25T02:49:49;38.60;;;14.80;;
27225;SDS011;14732;51.074;3.788;2023-04-25T02:52:15;40.17;;;15.07;;
27225;SDS011;14732;51.074;3.788;2023-04-25T02:54:40;45.45;;;15.05;;
27225;SDS011;14732;51.074;3.788;2023-04-25T02:57:06;45.50;;;16.23;;
27225;SDS011;14732;51.074;3.788;2023-04-25T02:59:32;44.78;;;16.20;;
27225;SDS011;14732;51.074;3.788;2023-04-25T03:01:58;37.88;;;15.15;;
27225;SDS011;14732;51.074;3.788;2023-04-25T03:04:24;45.22;;;16.92;;
27225;SDS011;14732;51.074;3.788;2023-04-25T03:06:50;45.13;;;17.13;;
27225;SDS011;14732;51.074;3.788;2023-04-25T03:09:16;45.85;;;17.33;;
27225;SDS011;14732;51.074;3.788;2023-04-25T03:11:42;43.05;;;16.85;;
27225;SDS011;14732;51.074;3.788;2023-04-25T03:14:08;41.28;;;15.60;;
27225;SDS011;14732;51.074;3.788;2023-04-25T03:16:34;39.80;;;16.33;;
27225;SDS011;14732;51.074;3.788;2023-04-25T03:19:01;29.92;;;10.43;;
27225;SDS011;14732;51.074;3.788;2023-04-25T03:21:28;21.52;;;4.40;;
27225;SDS011;14732;51.074;3.788;2023-04-25T03:23:54;14.70;;;3.38;;
27225;SDS011;14732;51.074;3.788;2023-04-25T03:26:19;9.30;;;2.33;;
27225;SDS011;14732;51.074;3.788;2023-04-25T03:28:45;12.80;;;2.90;;
27225;SDS011;14732;51.074;3.788;2023-04-25T03:31:11;10.57;;;2.42;;
27225;SDS011;14732;51.074;3.788;2023-04-25T03:33:36;12.05;;;2.58;;
27225;SDS011;14732;51.074;3.788;2023-04-25T03:36:02;11.02;;;2.72;;
27225;SDS011;14732;51.074;3.788;2023-04-25T03:38:28;10.55;;;2.20;;
27225;SDS011;14732;51.074;3.788;2023-04-25T03:40:54;11.05;;;3.28;;
27225;SDS011;14732;51.074;3.788;2023-04-25T03:43:21;14.38;;;3.10;;
27225;SDS011;14732;51.074;3.788;2023-04-25T03:45:47;10.13;;;2.33;;
27225;SDS011;14732;51.074;3.788;2023-04-25T03:48:12;12.77;;;2.70;;
27225;SDS011;14732;51.074;3.788;2023-04-25T03:50:38;10.38;;;2.90;;
27225;SDS011;14732;51.074;3.788;2023-04-25T03:53:03;11.63;;;3.40;;
27225;SDS011;14732;51.074;3.788;2023-04-25T03:55:29;13.50;;;3.65;;
27225;SDS011;14732;51.074;3.788;2023-04-25T03:57:55;14.13;;;4.47;;
27225;SDS011;14732;51.074;3.788;2023-04-25T04:00:23;18.27;;;5.10;;
27225;SDS011;14732;51.074;3.788;2023-04-25T04:02:49;16.58;;;5.15;;
27225;SDS011;14732;51.074;3.788;2023-04-25T04:05:14;13.63;;;5.38;;
27225;SDS011;14732;51.074;3.788;2023-04-25T04:07:40;18.98;;;5.32;;
27225;SDS011;14732;51.074;3.788;2023-04-25T04:10:07;20.80;;;3.90;;
27225;SDS011;14732;51.074;3.788;2023-04-25T04:12:37;18.23;;;3.95;;
27225;SDS011;14732;51.074;3.788;2023-04-25T04:15:03;11.02;;;2.63;;
27225;SDS011;14732;51.074;3.788;2023-04-25T04:17:30;12.10;;;2.63;;
27225;SDS011;14732;51.074;3.788;2023-04-25T04:19:56;12.30;;;3.00;;
27225;SDS011;14732;51.074;3.788;2023-04-25T04:22:22;17.45;;;2.75;;
27225;SDS011;14732;51.074;3.788;2023-04-25T04:24:48;19.35;;;3.47;;
27225;SDS011;14732;51.074;3.788;2023-04-25T04:27:15;10.80;;;2.60;;
27225;SDS011;14732;51.074;3.788;2023-04-25T04:29:47;11.90;;;2.92;;
27225;SDS011;14732;51.074;3.788;2023-04-25T04:32:13;10.90;;;2.38;;
27225;SDS011;14732;51.074;3.788;2023-04-25T04:34:40;20.75;;;2.90;;
27225;SDS011;14732;51.074;3.788;2023-04-25T04:37:06;13.38;;;2.60;;
27225;SDS011;14732;51.074;3.788;2023-04-25T04:39:32;14.43;;;2.40;;
27225;SDS011;14732;51.074;3.788;2023-04-25T04:42:01;18.95;;;2.78;;
27225;SDS011;14732;51.074;3.788;2023-04-25T04:44:28;12.98;;;2.90;;
27225;SDS011;14732;51.074;3.788;2023-04-25T04:46:54;10.20;;;2.58;;
27225;SDS011;14732;51.074;3.788;2023-04-25T04:49:20;15.77;;;2.30;;
27225;SDS011;14732;51.074;3.788;2023-04-25T04:51:46;10.90;;;2.67;;
27225;SDS011;14732;51.074;3.788;2023-04-25T04:54:12;13.55;;;2.95;;
27225;SDS011;14732;51.074;3.788;2023-04-25T04:56:38;7.20;;;2.45;;
27225;SDS011;14732;51.074;3.788;2023-04-25T04:59:04;10.55;;;2.78;;
27225;SDS011;14732;51.074;3.788;2023-04-25T05:01:30;9.90;;;2.67;;
27225;SDS011;14732;51.074;3.788;2023-04-25T05:03:56;8.25;;;2.22;;
27225;SDS011;14732;51.074;3.788;2023-04-25T05:08:51;13.50;;;3.25;;
27225;SDS011;14732;51.074;3.788;2023-04-25T05:11:17;10.68;;;2.33;;
27225;SDS011;14732;51.074;3.788;2023-04-25T05:13:44;14.68;;;2.35;;
27225;SDS011;14732;51.074;3.788;2023-04-25T05:16:10;10.68;;;2.97;;
27225;SDS011;14732;51.074;3.788;2023-04-25T05:18:37;12.05;;;3.30;;
27225;SDS011;14732;51.074;3.788;2023-04-25T05:21:02;16.58;;;3.42;;
27225;SDS011;14732;51.074;3.788;2023-04-25T05:23:28;14.52;;;3.33;;
27225;SDS011;14732;51.074;3.788;2023-04-25T05:25:55;14.30;;;3.25;;
27225;SDS011;14732;51.074;3.788;2023-04-25T05:28:21;12.18;;;3.63;;
27225;SDS011;14732;51.074;3.788;2023-04-25T05:30:47;12.55;;;3.75;;
27225;SDS011;14732;51.074;3.788;2023-04-25T05:33:13;12.63;;;3.72;;
27225;SDS011;14732;51.074;3.788;2023-04-25T05:35:39;18.33;;;3.78;;
27225;SDS011;14732;51.074;3.788;2023-04-25T05:38:05;15.48;;;3.15;;
27225;SDS011;14732;51.074;3.788;2023-04-25T05:40:30;9.73;;;2.67;;
27225;SDS011;14732;51.074;3.788;2023-04-25T05:42:56;14.18;;;2.67;;
27225;SDS011;14732;51.074;3.788;2023-04-25T05:45:21;6.07;;;2.58;;
27225;SDS011;14732;51.074;3.788;2023-04-25T05:47:47;10.43;;;3.05;;
27225;SDS011;14732;51.074;3.788;2023-04-25T05:50:13;10.18;;;2.65;;
27225;SDS011;14732;51.074;3.788;2023-04-25T05:52:38;14.45;;;2.72;;
27225;SDS011;14732;51.074;3.788;2023-04-25T05:55:05;14.07;;;3.17;;
27225;SDS011;14732;51.074;3.788;2023-04-25T05:57:31;12.63;;;2.88;;
27225;SDS011;14732;51.074;3.788;2023-04-25T05:59:56;12.00;;;3.55;;
27225;SDS011;14732;51.074;3.788;2023-04-25T06:02:22;15.80;;;2.83;;
27225;SDS011;14732;51.074;3.788;2023-04-25T06:04:49;13.60;;;3.60;;
27225;SDS011;14732;51.074;3.788;2023-04-25T06:07:15;10.70;;;3.08;;
27225;SDS011;14732;51.074;3.788;2023-04-25T06:09:41;8.05;;;2.25;;
27225;SDS011;14732;51.074;3.788;2023-04-25T06:12:07;12.68;;;2.80;;
27225;SDS011;14732;51.074;3.788;2023-04-25T06:14:35;12.55;;;2.55;;
27225;SDS011;14732;51.074;3.788;2023-04-25T06:17:02;18.10;;;3.33;;
27225;SDS011;14732;51.074;3.788;2023-04-25T06:19:35;11.40;;;2.75;;
27225;SDS011;14732;51.074;3.788;2023-04-25T06:22:01;10.35;;;1.85;;
27225;SDS011;14732;51.074;3.788;2023-04-25T06:24:27;9.30;;;2.55;;
27225;SDS011;14732;51.074;3.788;2023-04-25T06:26:52;11.05;;;2.13;;
27225;SDS011;14732;51.074;3.788;2023-04-25T06:29:18;7.35;;;1.65;;
27225;SDS011;14732;51.074;3.788;2023-04-25T06:31:44;10.15;;;1.83;;
27225;SDS011;14732;51.074;3.788;2023-04-25T06:34:10;9.15;;;1.98;;
27225;SDS011;14732;51.074;3.788;2023-04-25T06:36:35;5.47;;;1.58;;
27225;SDS011;14732;51.074;3.788;2023-04-25T06:39:01;9.27;;;1.60;;
27225;SDS011;14732;51.074;3.788;2023-04-25T06:41:27;8.18;;;1.83;;
27225;SDS011;14732;51.074;3.788;2023-04-25T06:43:53;8.43;;;1.77;;
27225;SDS011;14732;51.074;3.788;2023-04-25T06:46:19;6.63;;;1.42;;
27225;SDS011;14732;51.074;3.788;2023-04-25T06:48:44;8.68;;;1.75;;
27225;SDS011;14732;51.074;3.788;2023-04-25T06:51:10;6.43;;;1.63;;
27225;SDS011;14732;51.074;3.788;2023-04-25T06:53:38;11.13;;;3.45;;
27225;SDS011;14732;51.074;3.788;2023-04-25T06:56:03;12.75;;;1.80;;
27225;SDS011;14732;51.074;3.788;2023-04-25T06:58:29;10.25;;;1.67;;
27225;SDS011;14732;51.074;3.788;2023-04-25T07:00:55;6.55;;;1.40;;
27225;SDS011;14732;51.074;3.788;2023-04-25T07:03:20;6.82;;;1.50;;
27225;SDS011;14732;51.074;3.788;2023-04-25T07:05:46;8.45;;;1.45;;
27225;SDS011;14732;51.074;3.788;2023-04-25T07:08:12;7.45;;;2.15;;
27225;SDS011;14732;51.074;3.788;2023-04-25T07:10:37;5.57;;;1.48;;
27225;SDS011;14732;51.074;3.788;2023-04-25T07:13:03;7.68;;;1.70;;
27225;SDS011;14732;51.074;3.788;2023-04-25T07:15:29;7.43;;;1.40;;
27225;SDS011;14732;51.074;3.788;2023-04-25T07:17:54;11.90;;;2.00;;
27225;SDS011;14732;51.074;3.788;2023-04-25T07:20:20;8.93;;;1.50;;
27225;SDS011;14732;51.074;3.788;2023-04-25T07:22:46;5.97;;;1.20;;
27225;SDS011;14732;51.074;3.788;2023-04-25T07:25:12;9.88;;;1.63;;
27225;SDS011;14732;51.074;3.788;2023-04-25T07:27:37;9.13;;;1.45;;
27225;SDS011;14732;51.074;3.788;2023-04-25T07:30:04;6.47;;;1.10;;
27225;SDS011;14732;51.074;3.788;2023-04-25T07:32:30;6.97;;;1.10;;
27225;SDS011;14732;51.074;3.788;2023-04-25T07:34:56;7.22;;;1.33;;
27225;SDS011;14732;51.074;3.788;2023-04-25T07:37:21;5.63;;;1.10;;
27225;SDS011;14732;51.074;3.788;2023-04-25T07:39:47;5.93;;;1.02;;
27225;SDS011;14732;51.074;3.788;2023-04-25T07:42:13;6.65;;;1.13;;
27225;SDS011;14732;51.074;3.788;2023-04-25T07:44:39;7.90;;;1.20;;
27225;SDS011;14732;51.074;3.788;2023-04-25T07:47:08;6.93;;;1.23;;
27225;SDS011;14732;51.074;3.788;2023-04-25T07:52:01;7.38;;;1.55;;
27225;SDS011;14732;51.074;3.788;2023-04-25T07:54:27;9.35;;;2.55;;
27225;SDS011;14732;51.074;3.788;2023-04-25T07:56:53;5.55;;;1.67;;
27225;SDS011;14732;51.074;3.788;2023-04-25T07:59:19;6.90;;;1.45;;
27225;SDS011;14732;51.074;3.788;2023-04-25T08:01:45;4.38;;;1.27;;
27225;SDS011;14732;51.074;3.788;2023-04-25T08:04:11;8.27;;;1.35;;
27225;SDS011;14732;51.074;3.788;2023-04-25T08:06:36;4.13;;;1.10;;
27225;SDS011;14732;51.074;3.788;2023-04-25T08:09:02;4.78;;;1.30;;
27225;SDS011;14732;51.074;3.788;2023-04-25T08:11:29;3.90;;;0.85;;
27225;SDS011;14732;51.074;3.788;2023-04-25T08:13:54;5.25;;;0.73;;
27225;SDS011;14732;51.074;3.788;2023-04-25T08:16:20;12.15;;;1.20;;
27225;SDS011;14732;51.074;3.788;2023-04-25T08:18:46;5.60;;;1.17;;
27225;SDS011;14732;51.074;3.788;2023-04-25T08:21:12;2.70;;;0.90;;
27225;SDS011;14732;51.074;3.788;2023-04-25T08:23:38;5.05;;;1.00;;
27225;SDS011;14732;51.074;3.788;2023-04-25T08:26:04;2.63;;;1.25;;
27225;SDS011;14732;51.074;3.788;2023-04-25T08:28:30;1.95;;;0.68;;
27225;SDS011;14732;51.074;3.788;2023-04-25T08:30:56;6.65;;;1.10;;
27225;SDS011;14732;51.074;3.788;2023-04-25T08:33:22;3.38;;;0.90;;
27225;SDS011;14732;51.074;3.788;2023-04-25T08:35:48;5.25;;;0.90;;
27225;SDS011;14732;51.074;3.788;2023-04-25T08:38:13;5.90;;;0.90;;
27225;SDS011;14732;51.074;3.788;2023-04-25T08:40:39;4.18;;;1.10;;
27225;SDS011;14732;51.074;3.788;2023-04-25T08:43:06;2.70;;;0.80;;
27225;SDS011;14732;51.074;3.788;2023-04-25T08:45:38;2.60;;;0.80;;
27225;SDS011;14732;51.074;3.788;2023-04-25T08:48:14;3.85;;;0.60;;
27225;SDS011;14732;51.074;3.788;2023-04-25T08:50:44;2.00;;;0.70;;
27225;SDS011;14732;51.074;3.788;2023-04-25T08:53:15;4.10;;;1.00;;
27225;SDS011;14732;51.074;3.788;2023-04-25T08:55:44;6.13;;;1.00;;
27225;SDS011;14732;51.074;3.788;2023-04-25T08:58:11;4.35;;;1.10;;
27225;SDS011;14732;51.074;3.788;2023-04-25T09:00:38;3.67;;;0.90;;
27225;SDS011;14732;51.074;3.788;2023-04-25T09:03:04;7.25;;;1.20;;
27225;SDS011;14732;51.074;3.788;2023-04-25T09:05:32;4.68;;;1.63;;
27225;SDS011;14732;51.074;3.788;2023-04-25T09:07:58;5.38;;;1.20;;
27225;SDS011;14732;51.074;3.788;2023-04-25T09:10:25;3.70;;;0.90;;
27225;SDS011;14732;51.074;3.788;2023-04-25T09:13:05;5.00;;;1.00;;
27225;SDS011;14732;51.074;3.788;2023-04-25T09:18:13;5.47;;;0.95;;
27225;SDS011;14732;51.074;3.788;2023-04-25T09:20:42;4.45;;;1.05;;
27225;SDS011;14732;51.074;3.788;2023-04-25T09:23:08;3.97;;;0.90;;
27225;SDS011;14732;51.074;3.788;2023-04-25T09:25:35;2.17;;;0.93;;
27225;SDS011;14732;51.074;3.788;2023-04-25T09:28:04;6.05;;;0.82;;
27225;SDS011;14732;51.074;3.788;2023-04-25T09:30:32;3.13;;;0.70;;
27225;SDS011;14732;51.074;3.788;2023-04-25T09:33:06;3.75;;;0.70;;
27225;SDS011;14732;51.074;3.788;2023-04-25T09:35:36;3.80;;;0.80;;
27225;SDS011;14732;51.074;3.788;2023-04-25T09:38:10;6.00;;;0.95;;
27225;SDS011;14732;51.074;3.788;2023-04-25T09:40:41;3.95;;;0.90;;
27225;SDS011;14732;51.074;3.788;2023-04-25T09:43:21;3.33;;;0.70;;
27225;SDS011;14732;51.074;3.788;2023-04-25T09:45:47;2.78;;;0.80;;
27225;SDS011;14732;51.074;3.788;2023-04-25T09:48:18;3.00;;;0.77;;
27225;SDS011;14732;51.074;3.788;2023-04-25T09:50:45;2.80;;;0.73;;
27225;SDS011;14732;51.074;3.788;2023-04-25T09:53:32;3.17;;;0.68;;
27225;SDS011;14732;51.074;3.788;2023-04-25T09:55:59;2.35;;;0.60;;
27225;SDS011;14732;51.074;3.788;2023-04-25T09:58:25;4.68;;;1.10;;
27225;SDS011;14732;51.074;3.788;2023-04-25T10:00:55;3.00;;;1.10;;
27225;SDS011;14732;51.074;3.788;2023-04-25T10:03:25;4.35;;;0.80;;
27225;SDS011;14732;51.074;3.788;2023-04-25T10:05:51;5.32;;;0.90;;
27225;SDS011;14732;51.074;3.788;2023-04-25T10:08:19;3.60;;;0.90;;
27225;SDS011;14732;51.074;3.788;2023-04-25T10:10:46;2.05;;;0.70;;
27225;SDS011;14732;51.074;3.788;2023-04-25T10:13:13;2.80;;;0.95;;
27225;SDS011;14732;51.074;3.788;2023-04-25T10:15:40;5.15;;;0.95;;
27225;SDS011;14732;51.074;3.788;2023-04-25T10:18:07;7.40;;;1.02;;
27225;SDS011;14732;51.074;3.788;2023-04-25T10:20:33;5.07;;;0.95;;
27225;SDS011;14732;51.074;3.788;2023-04-25T10:23:03;27.40;;;9.73;;
27225;SDS011;14732;51.074;3.788;2023-04-25T10:25:36;7.07;;;1.30;;
27225;SDS011;14732;51.074;3.788;2023-04-25T10:28:03;25.90;;;7.55;;
27225;SDS011;14732;51.074;3.788;2023-04-25T10:30:29;7.68;;;2.72;;
27225;SDS011;14732;51.074;3.788;2023-04-25T10:32:55;4.10;;;1.00;;
27225;SDS011;14732;51.074;3.788;2023-04-25T10:40:30;3.72;;;0.88;;
27225;SDS011;14732;51.074;3.788;2023-04-25T10:45:54;7.45;;;1.25;;
27225;SDS011;14732;51.074;3.788;2023-04-25T10:48:26;5.40;;;1.00;;
27225;SDS011;14732;51.074;3.788;2023-04-25T10:51:09;2.05;;;0.82;;
27225;SDS011;14732;51.074;3.788;2023-04-25T10:53:46;4.50;;;0.75;;
27225;SDS011;14732;51.074;3.788;2023-04-25T10:56:28;2.93;;;0.60;;
27225;SDS011;14732;51.074;3.788;2023-04-25T10:59:05;2.50;;;0.52;;
27225;SDS011;14732;51.074;3.788;2023-04-25T11:01:41;3.90;;;0.90;;
27225;SDS011;14732;51.074;3.788;2023-04-25T11:09:48;4.30;;;0.70;;
27225;SDS011;14732;51.074;3.788;2023-04-25T11:12:14;2.70;;;0.55;;
27225;SDS011;14732;51.074;3.788;2023-04-25T11:14:41;3.42;;;0.70;;
27225;SDS011;14732;51.074;3.788;2023-04-25T11:17:07;3.63;;;0.70;;
27225;SDS011;14732;51.074;3.788;2023-04-25T11:19:33;3.30;;;1.00;;
27225;SDS011;14732;51.074;3.788;2023-04-25T11:22:00;5.38;;;0.70;;
27225;SDS011;14732;51.074;3.788;2023-04-25T11:24:30;3.72;;;0.70;;
27225;SDS011;14732;51.074;3.788;2023-04-25T11:26:58;5.85;;;0.82;;
27225;SDS011;14732;51.074;3.788;2023-04-25T11:29:27;3.22;;;0.80;;
27225;SDS011;14732;51.074;3.788;2023-04-25T11:31:54;3.78;;;0.70;;
27225;SDS011;14732;51.074;3.788;2023-04-25T11:34:22;3.30;;;0.60;;
27225;SDS011;14732;51.074;3.788;2023-04-25T11:36:50;2.63;;;0.80;;
27225;SDS011;14732;51.074;3.788;2023-04-25T11:39:17;4.25;;;1.27;;
27225;SDS011;14732;51.074;3.788;2023-04-25T11:41:43;4.07;;;0.73;;
27225;SDS011;14732;51.074;3.788;2023-04-25T11:44:09;3.45;;;0.77;;
27225;SDS011;14732;51.074;3.788;2023-04-25T11:46:35;3.28;;;0.63;;
27225;SDS011;14732;51.074;3.788;2023-04-25T11:49:02;1.48;;;0.60;;
27225;SDS011;14732;51.074;3.788;2023-04-25T11:51:29;2.00;;;0.65;;
27225;SDS011;14732;51.074;3.788;2023-04-25T11:53:55;3.15;;;0.80;;
27225;SDS011;14732;51.074;3.788;2023-04-25T11:56:20;1.75;;;0.65;;
27225;SDS011;14732;51.074;3.788;2023-04-25T11:58:56;7.20;;;0.70;;
27225;SDS011;14732;51.074;3.788;2023-04-25T12:03:53;5.25;;;0.73;;
27225;SDS011;14732;51.074;3.788;2023-04-25T12:06:18;4.13;;;0.80;;
27225;SDS011;14732;51.074;3.788;2023-04-25T12:09:00;4.80;;;0.85;;
27225;SDS011;14732;51.074;3.788;2023-04-25T12:11:29;4.75;;;1.00;;
27225;SDS011;14732;51.074;3.788;2023-04-25T12:14:01;4.30;;;0.70;;
27225;SDS011;14732;51.074;3.788;2023-04-25T12:16:27;6.45;;;1.10;;
27225;SDS011;14732;51.074;3.788;2023-04-25T12:18:53;3.40;;;0.82;;
27225;SDS011;14732;51.074;3.788;2023-04-25T12:21:20;4.65;;;0.70;;
27225;SDS011;14732;51.074;3.788;2023-04-25T12:23:46;4.80;;;1.17;;
27225;SDS011;14732;51.074;3.788;2023-04-25T12:26:11;4.80;;;0.80;;
27225;SDS011;14732;51.074;3.788;2023-04-25T12:28:37;7.60;;;2.42;;
27225;SDS011;14732;51.074;3.788;2023-04-25T12:31:03;4.78;;;0.90;;
27225;SDS011;14732;51.074;3.788;2023-04-25T12:33:34;4.47;;;0.90;;
27225;SDS011;14732;51.074;3.788;2023-04-25T12:36:02;6.40;;;0.80;;
27225;SDS011;14732;51.074;3.788;2023-04-25T12:38:35;4.32;;;1.10;;
27225;SDS011;14732;51.074;3.788;2023-04-25T12:41:03;3.72;;;0.85;;
27225;SDS011;14732;51.074;3.788;2023-04-25T12:43:28;2.92;;;0.60;;
27225;SDS011;14732;51.074;3.788;2023-04-25T12:45:54;5.35;;;1.00;;
27225;SDS011;14732;51.074;3.788;2023-04-25T12:48:21;6.07;;;1.08;;
27225;SDS011;14732;51.074;3.788;2023-04-25T12:50:47;4.18;;;0.80;;
27225;SDS011;14732;51.074;3.788;2023-04-25T12:53:17;6.82;;;0.70;;
27225;SDS011;14732;51.074;3.788;2023-04-25T12:55:47;5.57;;;0.88;;
27225;SDS011;14732;51.074;3.788;2023-04-25T12:58:14;4.47;;;0.70;;
27225;SDS011;14732;51.074;3.788;2023-04-25T13:00:40;4.43;;;0.82;;
27225;SDS011;14732;51.074;3.788;2023-04-25T13:03:07;4.88;;;0.95;;
27225;SDS011;14732;51.074;3.788;2023-04-25T13:05:34;5.43;;;0.88;;
27225;SDS011;14732;51.074;3.788;2023-04-25T13:07:59;3.30;;;0.70;;
27225;SDS011;14732;51.074;3.788;2023-04-25T13:10:25;5.03;;;1.00;;
27225;SDS011;14732;51.074;3.788;2023-04-25T13:12:51;3.15;;;0.93;;
27225;SDS011;14732;51.074;3.788;2023-04-25T13:15:16;3.60;;;0.73;;
27225;SDS011;14732;51.074;3.788;2023-04-25T13:17:42;4.00;;;0.63;;
27225;SDS011;14732;51.074;3.788;2023-04-25T13:20:08;3.10;;;1.00;;
27225;SDS011;14732;51.074;3.788;2023-04-25T13:22:38;3.15;;;0.80;;
27225;SDS011;14732;51.074;3.788;2023-04-25T13:25:04;6.60;;;0.82;;
27225;SDS011;14732;51.074;3.788;2023-04-25T13:27:32;4.05;;;0.80;;
27225;SDS011;14732;51.074;3.788;2023-04-25T13:30:03;6.35;;;1.08;;
27225;SDS011;14732;51.074;3.788;2023-04-25T13:32:33;3.72;;;0.68;;
27225;SDS011;14732;51.074;3.788;2023-04-25T13:35:00;7.75;;;0.95;;
27225;SDS011;14732;51.074;3.788;2023-04-25T13:37:27;3.92;;;0.80;;
27225;SDS011;14732;51.074;3.788;2023-04-25T13:39:54;7.78;;;1.02;;
27225;SDS011;14732;51.074;3.788;2023-04-25T13:42:21;4.22;;;0.88;;
27225;SDS011;14732;51.074;3.788;2023-04-25T13:44:48;3.60;;;0.90;;
27225;SDS011;14732;51.074;3.788;2023-04-25T13:47:13;4.88;;;0.90;;
27225;SDS011;14732;51.074;3.788;2023-04-25T13:49:39;6.20;;;1.13;;
27225;SDS011;14732;51.074;3.788;2023-04-25T13:52:04;3.10;;;0.98;;
27225;SDS011;14732;51.074;3.788;2023-04-25T13:54:31;4.03;;;1.00;;
27225;SDS011;14732;51.074;3.788;2023-04-25T13:56:56;3.78;;;0.80;;
27225;SDS011;14732;51.074;3.788;2023-04-25T13:59:24;5.72;;;1.10;;
27225;SDS011;14732;51.074;3.788;2023-04-25T14:01:50;5.88;;;1.10;;
27225;SDS011;14732;51.074;3.788;2023-04-25T14:04:16;3.03;;;0.90;;
27225;SDS011;14732;51.074;3.788;2023-04-25T14:06:42;2.00;;;0.70;;
27225;SDS011;14732;51.074;3.788;2023-04-25T14:09:08;6.65;;;0.93;;
27225;SDS011;14732;51.074;3.788;2023-04-25T14:11:36;4.93;;;0.90;;
27225;SDS011;14732;51.074;3.788;2023-04-25T14:14:02;6.32;;;0.98;;
27225;SDS011;14732;51.074;3.788;2023-04-25T14:16:28;8.07;;;0.70;;
27225;SDS011;14732;51.074;3.788;2023-04-25T14:18:55;3.17;;;0.70;;
27225;SDS011;14732;51.074;3.788;2023-04-25T14:21:21;4.78;;;0.70;;
27225;SDS011;14732;51.074;3.788;2023-04-25T14:23:47;4.78;;;0.80;;
27225;SDS011;14732;51.074;3.788;2023-04-25T14:26:12;3.67;;;0.52;;
27225;SDS011;14732;51.074;3.788;2023-04-25T14:28:38;1.15;;;0.38;;
27225;SDS011;14732;51.074;3.788;2023-04-25T14:31:04;4.85;;;0.60;;
27225;SDS011;14732;51.074;3.788;2023-04-25T14:33:29;2.28;;;0.70;;
27225;SDS011;14732;51.074;3.788;2023-04-25T14:35:56;8.27;;;1.30;;
27225;SDS011;14732;51.074;3.788;2023-04-25T14:38:22;4.85;;;0.93;;
27225;SDS011;14732;51.074;3.788;2023-04-25T14:40:50;4.82;;;1.40;;
27225;SDS011;14732;51.074;3.788;2023-04-25T14:43:16;3.42;;;1.20;;
27225;SDS011;14732;51.074;3.788;2023-04-25T14:45:42;2.53;;;1.13;;
27225;SDS011;14732;51.074;3.788;2023-04-25T14:48:08;18.77;;;7.03;;
27225;SDS011;14732;51.074;3.788;2023-04-25T14:50:34;15.07;;;4.95;;
27225;SDS011;14732;51.074;3.788;2023-04-25T14:52:59;2.30;;;0.70;;
27225;SDS011;14732;51.074;3.788;2023-04-25T14:55:28;4.45;;;0.70;;
27225;SDS011;14732;51.074;3.788;2023-04-25T14:57:54;4.22;;;0.73;;
27225;SDS011;14732;51.074;3.788;2023-04-25T15:00:20;2.65;;;0.80;;
27225;SDS011;14732;51.074;3.788;2023-04-25T15:02:47;3.80;;;1.17;;